TW-0028 weather

Taipei Veterans’ General Helipad
Taipei, Taipei (municipality), Taiwan

Public forecast

Using degrees Celsius for public forecast. Weather courtesy of forecast.io.

METAR (pilot weather report)

Closest report is Taipei Songshan Airport, 3.5 nm (6.5 km) SSE. Retrieved 2019/07/22 07:42 UTC (0 seconds ago):

RCSS 220742Z 23011G21KT 0800 R28/1500D +TSRA SCT003 FEW010CB BKN012 27/26 Q1006 WS R28 NOSIG RMK 22011KT/R10 TS OVHD A2972

TAF (pilot weather forecast)

Closest forecast is Taipei Songshan Airport, 3.5 nm (6.5 km) SSE. Retrieved 2019/07/22 06:45 UTC (37 minutes ago):

TAF COR TAF COR RCSS 220542Z 2206/2306 30005KT 9999 FEW015 BKN032 TEMPO 2207/2211 09005KT 4000 TSRA FEW010 FEW012CB BKN016 BKN040 BECMG 2211/2213 09005KT BECMG 2300/2302 30005KT